Time;durP1;ratioP1;P1;durP2;ratioP2;P2;SDS_P1;SDS_P2;PMS_P1;PMS_P2;Temp;Humidity;BMP_temperature;BMP_pressure;BME280_temperature;BME280_humidity;BME280_pressure;Samples;Min_cycle;Max_cycle;Signal;HPM_P1;HPM_P2
2021/03/15 00:01:18;;;;;;;12.10;11.02;;;6.20;99.90;;;;;;5004063;28;20131;-68
2021/03/15 00:03:44;;;;;;;11.05;10.25;;;6.20;99.90;;;;;;5102989;27;20388;-68
2021/03/15 00:06:11;;;;;;;10.82;10.10;;;6.10;99.90;;;;;;5005978;28;20389;-68
2021/03/15 00:08:37;;;;;;;10.77;10.20;;;6.10;99.90;;;;;;5001212;28;20070;-68
2021/03/15 00:11:03;;;;;;;11.23;10.45;;;6.10;99.90;;;;;;5005106;28;20042;-68
2021/03/15 00:13:29;;;;;;;10.88;10.18;;;6.10;99.90;;;;;;5004870;28;20062;-68
2021/03/15 00:15:57;;;;;;;11.15;10.45;;;6.10;99.90;;;;;;5004185;28;20053;-68
2021/03/15 00:18:24;;;;;;;10.43;9.73;;;6.10;99.90;;;;;;5005039;28;20044;-68
2021/03/15 00:20:51;;;;;;;10.88;10.27;;;6.10;99.90;;;;;;5007519;28;20046;-69
2021/03/15 00:23:18;;;;;;;7.85;7.13;;;6.10;99.90;;;;;;5008507;28;20052;-69
2021/03/15 00:25:44;;;;;;;7.15;6.75;;;6.00;99.90;;;;;;5002815;28;20423;-69
2021/03/15 00:28:10;;;;;;;6.85;6.35;;;6.00;99.90;;;;;;5003210;28;20054;-69
2021/03/15 00:30:37;;;;;;;7.05;6.55;;;6.00;99.90;;;;;;5001978;28;20719;-69
2021/03/15 00:33:03;;;;;;;8.07;7.47;;;6.00;99.90;;;;;;5002822;28;20057;-69
2021/03/15 00:35:30;;;;;;;8.02;7.57;;;6.00;99.90;;;;;;5001571;28;20077;-69
2021/03/15 00:37:56;;;;;;;8.55;8.05;;;6.00;99.90;;;;;;5002952;28;20107;-69
2021/03/15 00:40:23;;;;;;;8.25;7.60;;;6.00;99.90;;;;;;5002830;28;20103;-69
2021/03/15 00:42:51;;;;;;;8.57;8.07;;;6.00;99.90;;;;;;5000018;28;20114;-69
2021/03/15 00:45:20;;;;;;;8.00;7.50;;;6.00;99.90;;;;;;5004403;28;20065;-69
2021/03/15 00:47:48;;;;;;;8.02;7.47;;;6.00;99.90;;;;;;5003254;28;20133;-69
2021/03/15 00:50:40;;;;;;;8.80;8.30;;;6.00;99.90;;;;;;5004606;28;20056;-69
2021/03/15 00:53:06;;;;;;;8.60;8.00;;;6.00;99.90;;;;;;5002837;28;20062;-69
2021/03/15 00:55:33;;;;;;;8.57;8.07;;;6.00;99.90;;;;;;5004271;28;20050;-69
2021/03/15 00:57:59;;;;;;;8.30;7.78;;;6.00;99.90;;;;;;5003371;28;20136;-69
2021/03/15 01:00:28;;;;;;;8.95;8.45;;;6.00;99.90;;;;;;5003418;28;20060;-69
2021/03/15 01:02:55;;;;;;;9.35;8.45;;;6.00;99.90;;;;;;5009036;28;20042;-69
2021/03/15 01:05:26;;;;;;;9.43;8.73;;;6.00;99.90;;;;;;5008387;28;20076;-69
2021/03/15 01:07:52;;;;;;;9.05;8.45;;;6.00;99.90;;;;;;5005116;28;20137;-70
2021/03/15 01:10:21;;;;;;;9.05;8.55;;;6.00;99.90;;;;;;5006952;28;20090;-69
2021/03/15 01:12:48;;;;;;;9.25;8.65;;;6.10;99.90;;;;;;5003925;28;20342;-69
2021/03/15 01:15:18;;;;;;;11.07;10.38;;;6.00;99.90;;;;;;5009229;28;20050;-69
2021/03/15 01:17:44;;;;;;;11.13;10.52;;;6.10;99.90;;;;;;5005454;28;20054;-69
2021/03/15 01:20:11;;;;;;;10.90;10.35;;;6.10;99.90;;;;;;5007096;28;20058;-69
2021/03/15 01:22:37;;;;;;;12.65;11.85;;;6.10;99.90;;;;;;5007661;28;20384;-69
2021/03/15 01:25:05;;;;;;;11.43;10.73;;;6.10;99.90;;;;;;5006442;28;20042;-69
2021/03/15 01:27:31;;;;;;;11.45;10.90;;;6.10;99.90;;;;;;5006584;28;20122;-69
2021/03/15 01:29:58;;;;;;;10.73;10.13;;;6.10;99.90;;;;;;5011128;28;20095;-69
2021/03/15 01:32:25;;;;;;;10.55;10.02;;;6.10;99.90;;;;;;5005413;28;20050;-69
2021/03/15 01:34:51;;;;;;;12.05;11.43;;;6.10;99.90;;;;;;5004188;28;20147;-69
2021/03/15 01:37:17;;;;;;;10.68;10.13;;;6.10;99.90;;;;;;5001803;28;20076;-69
2021/03/15 01:39:44;;;;;;;7.60;7.10;;;6.10;99.90;;;;;;5003368;28;20137;-69
2021/03/15 01:42:10;;;;;;;9.45;8.98;;;6.10;99.90;;;;;;5004484;28;20071;-70
2021/03/15 01:44:36;;;;;;;9.10;8.63;;;6.10;99.90;;;;;;5005954;28;20058;-69
2021/03/15 01:47:03;;;;;;;11.13;10.55;;;6.10;99.90;;;;;;5006765;28;20052;-69
2021/03/15 01:49:29;;;;;;;11.05;10.55;;;6.10;99.90;;;;;;5007444;28;20050;-69
2021/03/15 01:51:56;;;;;;;10.02;9.43;;;6.20;99.90;;;;;;5005079;28;20140;-69
2021/03/15 01:54:23;;;;;;;7.82;7.25;;;6.10;99.90;;;;;;5002290;28;20046;-69
2021/03/15 01:56:49;;;;;;;8.45;7.85;;;6.20;99.90;;;;;;5006518;28;20140;-69
2021/03/15 01:59:16;;;;;;;7.53;7.10;;;6.10;99.90;;;;;;5005459;28;20046;-69
2021/03/15 02:01:46;;;;;;;6.97;6.40;;;6.10;99.90;;;;;;5005154;28;20046;-69
2021/03/15 02:04:14;;;;;;;7.63;7.13;;;6.10;99.90;;;;;;5007241;28;20042;-69
2021/03/15 02:06:41;;;;;;;8.75;8.25;;;6.10;99.90;;;;;;5005948;28;20042;-69
2021/03/15 02:09:08;;;;;;;8.23;7.63;;;6.10;99.90;;;;;;5005565;28;20053;-69
2021/03/15 02:11:51;;;;;;;8.48;7.90;;;6.10;99.90;;;;;;5004535;28;20408;-70
2021/03/15 02:14:43;;;;;;;7.65;7.25;;;6.10;99.90;;;;;;5093777;27;20069;-69
2021/03/15 02:17:17;;;;;;;6.53;6.13;;;6.10;99.90;;;;;;5097386;27;20053;-69
2021/03/15 02:20:02;;;;;;;6.78;6.38;;;6.10;99.90;;;;;;5005228;28;20053;-69
2021/03/15 02:22:33;;;;;;;6.90;6.50;;;6.10;99.90;;;;;;5091602;27;20135;-69
2021/03/15 02:25:12;;;;;;;7.25;6.85;;;6.10;99.90;;;;;;5007251;28;20048;-69
2021/03/15 02:28:11;;;;;;;7.22;6.82;;;6.10;99.90;;;;;;5005867;28;20739;-69
2021/03/15 02:30:43;;;;;;;7.03;6.53;;;6.10;99.90;;;;;;5002774;28;20564;-69
2021/03/15 02:33:33;;;;;;;7.05;6.65;;;6.10;99.90;;;;;;5004790;28;20129;-69
2021/03/15 02:36:02;;;;;;;7.35;6.85;;;6.10;99.90;;;;;;5103135;27;20057;-69
2021/03/15 02:38:35;;;;;;;7.30;6.90;;;6.10;99.90;;;;;;5004577;28;20412;-69
2021/03/15 02:41:03;;;;;;;7.18;6.75;;;6.10;99.90;;;;;;5004970;28;20038;-69
2021/03/15 02:44:02;;;;;;;6.80;6.32;;;6.10;99.90;;;;;;5006586;28;20381;-69
2021/03/15 02:46:31;;;;;;;6.65;6.25;;;6.10;99.90;;;;;;5087288;27;20404;-70
2021/03/15 02:49:02;;;;;;;6.60;6.07;;;6.10;99.90;;;;;;5005876;28;21073;-69
2021/03/15 02:51:32;;;;;;;6.65;6.25;;;6.10;99.90;;;;;;5002878;28;20063;-69
2021/03/15 02:54:01;;;;;;;6.80;6.35;;;6.00;99.90;;;;;;5006109;28;20133;-69
2021/03/15 02:56:31;;;;;;;6.43;6.03;;;6.00;99.90;;;;;;5002402;28;20087;-70
2021/03/15 02:59:03;;;;;;;7.13;6.72;;;6.00;99.90;;;;;;5004999;28;20571;-69
2021/03/15 03:01:32;;;;;;;7.97;7.38;;;6.00;99.90;;;;;;5101717;27;20071;-69
2021/03/15 03:03:59;;;;;;;;;;;6.00;99.90;;;;;;5006415;28;20499;-69
2021/03/15 03:06:29;;;;;;;6.72;6.32;;;6.00;99.90;;;;;;5005531;28;19921;-69
2021/03/15 03:09:05;;;;;;;7.57;7.03;;;6.00;99.90;;;;;;5005312;28;20085;-69
2021/03/15 03:11:33;;;;;;;7.47;7.05;;;6.10;99.90;;;;;;5004300;28;20888;-69
2021/03/15 03:14:01;;;;;;;7.80;7.20;;;6.10;99.90;;;;;;5107304;27;20056;-69
2021/03/15 03:16:33;;;;;;;7.80;7.30;;;6.10;99.90;;;;;;5006340;28;20088;-69
2021/03/15 03:19:01;;;;;;;8.48;7.93;;;6.10;99.90;;;;;;5104460;27;20127;-69
2021/03/15 03:21:28;;;;;;;8.80;8.30;;;6.10;99.90;;;;;;5004143;28;20056;-69
2021/03/15 03:23:58;;;;;;;8.85;8.25;;;6.10;99.90;;;;;;5004825;28;20050;-70
2021/03/15 03:26:30;;;;;;;8.63;8.05;;;6.10;99.90;;;;;;5003732;28;20042;-69
2021/03/15 03:28:57;;;;;;;8.98;8.27;;;6.10;99.90;;;;;;5005825;28;20081;-69
2021/03/15 03:31:29;;;;;;;8.48;7.97;;;6.10;99.90;;;;;;5004092;28;20529;-69
2021/03/15 03:33:56;;;;;;;8.55;8.05;;;6.10;99.90;;;;;;5004985;28;20405;-69
2021/03/15 03:36:22;;;;;;;9.00;8.48;;;6.10;99.90;;;;;;5014988;28;20124;-69
2021/03/15 03:38:48;;;;;;;9.35;8.75;;;6.10;99.90;;;;;;5002660;28;20038;-69
2021/03/15 03:41:14;;;;;;;9.88;9.27;;;6.10;99.90;;;;;;5004480;28;20049;-70
2021/03/15 03:43:53;;;;;;;10.45;9.85;;;6.10;99.90;;;;;;5002752;28;20382;-70
2021/03/15 03:46:19;;;;;;;10.45;9.68;;;6.10;99.90;;;;;;5005572;28;20073;-70
2021/03/15 03:48:45;;;;;;;10.02;9.43;;;6.10;99.90;;;;;;5004613;28;20050;-70
2021/03/15 03:51:12;;;;;;;10.73;10.13;;;6.10;99.90;;;;;;5005265;28;20056;-70
2021/03/15 03:53:41;;;;;;;10.70;10.02;;;6.20;99.90;;;;;;5005984;28;20057;-70
2021/03/15 03:56:12;;;;;;;;;;;6.20;99.90;;;;;;5010026;28;20171;-70
2021/03/15 03:58:48;;;;;;;10.20;9.45;;;6.10;99.90;;;;;;5006095;28;20012;-70
2021/03/15 04:01:15;;;;;;;10.02;9.32;;;6.10;99.90;;;;;;4999896;28;20042;-70
2021/03/15 04:03:44;;;;;;;10.90;10.20;;;6.10;99.90;;;;;;5004654;28;20045;-70
2021/03/15 04:06:13;;;;;;;10.15;9.48;;;6.20;99.90;;;;;;5001843;28;20042;-70
2021/03/15 04:09:12;;;;;;;10.50;9.68;;;6.20;99.90;;;;;;5080785;27;20068;-70
2021/03/15 04:11:44;;;;;;;10.10;9.38;;;6.20;99.90;;;;;;4996281;28;20080;-70
2021/03/15 04:14:16;;;;;;;10.15;9.55;;;6.20;99.90;;;;;;4995172;28;20073;-70
2021/03/15 04:16:44;;;;;;;10.52;9.93;;;6.20;99.90;;;;;;4994891;28;20122;-70
2021/03/15 04:19:11;;;;;;;10.35;9.75;;;6.20;99.90;;;;;;4991920;28;20851;-71
2021/03/15 04:21:40;;;;;;;11.10;10.40;;;6.20;99.90;;;;;;4994761;28;20046;-71
2021/03/15 04:24:09;;;;;;;11.20;10.40;;;6.20;99.90;;;;;;4994471;28;20046;-70
2021/03/15 04:26:36;;;;;;;10.57;9.88;;;6.20;99.90;;;;;;4995538;28;20556;-70
2021/03/15 04:29:05;;;;;;;10.88;10.27;;;6.20;99.90;;;;;;4993269;28;20153;-70
2021/03/15 04:31:32;;;;;;;9.63;9.02;;;6.20;99.90;;;;;;4995468;28;20466;-70
2021/03/15 04:33:59;;;;;;;10.43;9.82;;;6.20;99.90;;;;;;4997366;28;20054;-70
2021/03/15 04:36:26;;;;;;;10.10;9.38;;;6.20;99.90;;;;;;5003156;28;20068;-70
2021/03/15 04:38:53;;;;;;;10.32;9.68;;;6.20;99.90;;;;;;5096524;27;20124;-70
2021/03/15 04:41:20;;;;;;;10.40;9.75;;;6.20;99.90;;;;;;4997958;28;20045;-70
2021/03/15 04:43:48;;;;;;;10.25;9.45;;;6.20;99.90;;;;;;5000341;28;20133;-70
2021/03/15 04:46:18;;;;;;;10.97;10.23;;;6.20;99.90;;;;;;5097812;27;20074;-70
2021/03/15 04:48:46;;;;;;;9.75;9.15;;;6.10;99.90;;;;;;4998518;28;20300;-70
2021/03/15 04:51:17;;;;;;;11.50;10.60;;;6.20;99.90;;;;;;4999277;28;20400;-70
2021/03/15 04:53:44;;;;;;;10.15;9.55;;;6.10;99.90;;;;;;4999710;28;20061;-70
2021/03/15 04:56:17;;;;;;;10.27;9.57;;;6.10;99.90;;;;;;4996672;28;20058;-70
2021/03/15 04:58:49;;;;;;;10.32;9.52;;;6.10;99.90;;;;;;4998567;28;20433;-70
2021/03/15 05:01:17;;;;;;;9.90;9.30;;;6.10;99.90;;;;;;5000433;28;20038;-71
2021/03/15 05:03:48;;;;;;;9.80;9.05;;;6.10;99.90;;;;;;4999984;28;20050;-70
2021/03/15 05:06:15;;;;;;;9.63;9.02;;;6.10;99.90;;;;;;4999426;28;20112;-70
2021/03/15 05:08:47;;;;;;;9.90;9.30;;;6.10;99.90;;;;;;4999053;28;20062;-70
2021/03/15 05:11:13;;;;;;;11.35;10.55;;;6.10;99.90;;;;;;5001945;28;20376;-70
2021/03/15 05:13:41;;;;;;;10.43;9.77;;;6.10;99.90;;;;;;5000276;28;20508;-71
2021/03/15 05:16:09;;;;;;;11.43;10.73;;;6.10;99.90;;;;;;4997648;28;20060;-70
2021/03/15 05:18:37;;;;;;;10.70;10.00;;;6.10;99.90;;;;;;5000553;28;20077;-70
2021/03/15 05:21:06;;;;;;;11.68;10.95;;;6.10;99.90;;;;;;4999255;28;20073;-70
2021/03/15 05:23:33;;;;;;;11.70;10.90;;;6.10;99.90;;;;;;4998315;28;20046;-70
2021/03/15 05:26:01;;;;;;;11.60;10.80;;;6.10;99.90;;;;;;5003451;28;20041;-70
2021/03/15 05:28:28;;;;;;;11.13;10.43;;;6.10;99.90;;;;;;4997233;28;20054;-70
2021/03/15 05:30:58;;;;;;;10.77;10.10;;;6.10;99.90;;;;;;5002109;28;20481;-70
2021/03/15 05:33:27;;;;;;;12.43;11.63;;;6.10;99.90;;;;;;4996549;28;20072;-70
2021/03/15 05:35:55;;;;;;;12.20;11.20;;;6.10;99.90;;;;;;5003021;28;20049;-70
2021/03/15 05:38:22;;;;;;;10.63;9.87;;;6.10;99.90;;;;;;5003359;28;20046;-70
2021/03/15 05:40:49;;;;;;;10.75;10.05;;;6.10;99.90;;;;;;5002998;28;20073;-70
2021/03/15 05:43:33;;;;;;;11.23;10.35;;;6.00;99.90;;;;;;4999872;28;20054;-70
2021/03/15 05:46:32;;;;;;;9.25;8.55;;;6.00;99.90;;;;;;5005794;28;20432;-70
2021/03/15 05:49:29;;;;;;;9.80;9.18;;;6.00;99.90;;;;;;5017183;28;20055;-70
2021/03/15 05:52:14;;;;;;;9.18;8.57;;;5.90;99.90;;;;;;5005340;28;20045;-70
2021/03/15 05:55:17;;;;;;;10.38;9.68;;;5.90;99.90;;;;;;5006249;28;20053;-70
2021/03/15 05:58:10;;;;;;;9.35;8.75;;;5.80;99.90;;;;;;5005676;28;20046;-70
2021/03/15 06:01:02;;;;;;;9.30;8.70;;;5.80;99.90;;;;;;5004498;28;20088;-70
2021/03/15 06:03:47;;;;;;;10.32;9.50;;;5.80;99.90;;;;;;5008875;28;20418;-70
2021/03/15 06:06:19;;;;;;;9.85;9.02;;;5.80;99.90;;;;;;5015509;28;20568;-70
2021/03/15 06:08:47;;;;;;;8.77;8.07;;;5.70;99.90;;;;;;5093822;27;20049;-70
2021/03/15 06:11:20;;;;;;;9.95;9.13;;;5.70;99.90;;;;;;4999597;28;20042;-70
2021/03/15 06:13:46;;;;;;;10.38;9.52;;;5.70;99.90;;;;;;5004927;28;20442;-70
2021/03/15 06:16:15;;;;;;;10.27;9.68;;;5.70;99.90;;;;;;5006345;28;20042;-71
2021/03/15 06:18:43;;;;;;;9.93;9.32;;;5.70;99.90;;;;;;5010050;28;20133;-70
2021/03/15 06:21:11;;;;;;;;;;;5.70;99.90;;;;;;5003431;28;20049;-70
2021/03/15 06:23:38;;;;;;;8.68;8.07;;;5.70;99.90;;;;;;4995193;28;20291;-71
2021/03/15 06:26:07;;;;;;;9.82;8.85;;;5.70;99.90;;;;;;4993976;28;20073;-70
2021/03/15 06:28:33;;;;;;;9.15;8.63;;;5.80;99.90;;;;;;4996790;28;20128;-70
2021/03/15 06:31:00;;;;;;;9.20;8.43;;;5.80;99.90;;;;;;5003456;28;20072;-70
2021/03/15 06:33:27;;;;;;;9.32;8.82;;;5.80;99.90;;;;;;5000663;28;20049;-70
2021/03/15 06:36:01;;;;;;;9.93;9.20;;;5.80;99.90;;;;;;5097200;27;20054;-70
2021/03/15 06:38:29;;;;;;;9.55;8.80;;;5.90;99.90;;;;;;5006741;28;20056;-70
2021/03/15 06:41:04;;;;;;;9.88;9.27;;;5.90;99.90;;;;;;5001879;28;20189;-70
2021/03/15 06:43:31;;;;;;;9.85;9.15;;;5.90;99.90;;;;;;5002075;28;20077;-70
2021/03/15 06:45:58;;;;;;;9.75;9.02;;;6.00;99.90;;;;;;5005833;28;20433;-70
2021/03/15 06:48:26;;;;;;;9.60;8.98;;;6.00;99.90;;;;;;5002411;28;20050;-70
2021/03/15 06:50:53;;;;;;;10.55;9.80;;;6.00;99.90;;;;;;5022645;28;20047;-70
2021/03/15 06:53:20;;;;;;;9.73;8.93;;;6.10;99.90;;;;;;5001784;28;20485;-70
2021/03/15 06:55:51;;;;;;;9.65;8.75;;;6.10;99.90;;;;;;5015728;28;20493;-70
2021/03/15 06:58:18;;;;;;;8.90;8.35;;;6.20;99.90;;;;;;5002662;28;20045;-70
2021/03/15 07:00:48;;;;;;;9.10;8.40;;;6.20;99.90;;;;;;5005317;28;20133;-70
2021/03/15 07:03:22;;;;;;;9.25;8.50;;;6.20;99.90;;;;;;5102530;27;20042;-70
2021/03/15 07:05:56;;;;;;;8.40;7.68;;;6.30;99.90;;;;;;5001671;28;20042;-70
2021/03/15 07:08:23;;;;;;;10.38;9.55;;;6.30;99.90;;;;;;4997559;28;20050;-70
2021/03/15 07:10:51;;;;;;;10.55;9.20;;;6.30;99.90;;;;;;5005715;28;20046;-70
2021/03/15 07:13:19;;;;;;;15.48;14.43;;;6.40;99.90;;;;;;4999819;28;20046;-70
2021/03/15 07:15:48;;;;;;;12.15;11.25;;;6.40;99.90;;;;;;5013560;28;20137;-70
2021/03/15 07:18:18;;;;;;;11.45;10.60;;;6.50;99.90;;;;;;4995075;28;20050;-70
2021/03/15 07:20:49;;;;;;;11.27;10.27;;;6.50;99.90;;;;;;4996531;28;20055;-70
2021/03/15 07:23:36;;;;;;;10.90;9.80;;;6.60;99.90;;;;;;4995525;28;20405;-69
2021/03/15 07:26:16;;;;;;;11.27;10.43;;;6.60;99.90;;;;;;4998673;28;20050;-70
2021/03/15 07:28:43;;;;;;;9.57;8.95;;;6.70;99.90;;;;;;4994448;28;21079;-70
2021/03/15 07:31:31;;;;;;;9.63;8.90;;;6.80;99.90;;;;;;4997820;28;20136;-70
2021/03/15 07:33:57;;;;;;;11.48;10.43;;;6.80;99.90;;;;;;4997308;28;20109;-70
2021/03/15 07:36:31;;;;;;;11.80;10.80;;;6.90;99.90;;;;;;4998561;28;20749;-70
2021/03/15 07:38:59;;;;;;;11.40;8.95;;;6.90;99.90;;;;;;4994432;28;20042;-70
2021/03/15 07:41:43;;;;;;;8.85;7.97;;;6.90;99.90;;;;;;4996378;28;20101;-69
2021/03/15 07:44:22;;;;;;;10.25;9.35;;;6.90;99.90;;;;;;4997265;28;20050;-70
2021/03/15 07:46:50;;;;;;;10.52;9.73;;;6.90;99.90;;;;;;4995994;28;20060;-69
2021/03/15 07:49:25;;;;;;;8.95;8.13;;;7.00;99.90;;;;;;4993786;28;20054;-70
2021/03/15 07:52:00;;;;;;;8.82;7.95;;;7.00;99.90;;;;;;4997724;28;20054;-69
2021/03/15 07:54:35;;;;;;;9.23;8.32;;;7.10;99.90;;;;;;4993754;28;20058;-70
2021/03/15 07:57:17;;;;;;;9.65;8.75;;;7.10;99.90;;;;;;4994836;28;20591;-70
2021/03/15 07:59:47;;;;;;;10.15;9.38;;;7.10;99.90;;;;;;4995037;28;20118;-70
2021/03/15 08:02:16;;;;;;;8.88;8.18;;;7.10;99.90;;;;;;4997557;28;20060;-70
2021/03/15 08:04:43;;;;;;;8.13;7.57;;;7.00;99.90;;;;;;4994780;28;20124;-70
2021/03/15 08:07:12;;;;;;;7.95;7.30;;;6.80;99.90;;;;;;4999999;28;20054;-70
2021/03/15 08:09:41;;;;;;;9.38;8.60;;;6.60;99.90;;;;;;5000732;28;20137;-70
2021/03/15 08:12:09;;;;;;;;;;;6.50;99.90;;;;;;4995445;28;20054;-70
2021/03/15 08:14:37;;;;;;;8.98;8.40;;;6.50;99.90;;;;;;4995908;28;19928;-70
2021/03/15 08:17:07;;;;;;;7.85;7.35;;;6.60;99.90;;;;;;4996562;28;20057;-70
2021/03/15 08:19:36;;;;;;;8.63;7.75;;;6.70;99.90;;;;;;4994375;28;20780;-70
2021/03/15 08:22:04;;;;;;;8.18;7.47;;;6.80;99.90;;;;;;4999190;28;20062;-70
2021/03/15 08:24:35;;;;;;;7.20;6.55;;;7.00;99.90;;;;;;4996906;28;20506;-70
2021/03/15 08:27:03;;;;;;;7.57;6.88;;;7.10;99.90;;;;;;5000651;28;20128;-70
2021/03/15 08:29:35;;;;;;;8.73;8.00;;;7.20;99.90;;;;;;5001083;28;20110;-70
2021/03/15 08:32:04;;;;;;;8.05;7.45;;;7.20;99.90;;;;;;5003467;28;20054;-70
2021/03/15 08:34:33;;;;;;;9.40;8.48;;;7.30;99.90;;;;;;5000543;28;20058;-70
2021/03/15 08:36:59;;;;;;;9.55;8.80;;;7.30;99.90;;;;;;5001584;28;20128;-70
2021/03/15 08:39:37;;;;;;;8.90;8.18;;;7.30;99.90;;;;;;4998169;28;20050;-70
2021/03/15 08:42:14;;;;;;;9.90;9.20;;;7.40;99.90;;;;;;5001472;28;20130;-70
2021/03/15 08:45:00;;;;;;;9.65;8.98;;;7.50;99.90;;;;;;4997993;28;20050;-70
2021/03/15 08:47:48;;;;;;;26.80;25.30;;;7.60;99.90;;;;;;5000439;28;20061;-70
2021/03/15 08:50:33;;;;;;;18.58;17.17;;;7.80;99.90;;;;;;5001279;28;20111;-71
2021/03/15 08:52:59;;;;;;;19.85;18.50;;;7.80;99.90;;;;;;5001514;28;20114;-71
2021/03/15 08:55:46;;;;;;;16.67;15.57;;;7.90;99.90;;;;;;5004330;28;20087;-70
2021/03/15 08:58:34;;;;;;;15.57;14.57;;;8.10;99.90;;;;;;4999172;28;20066;-70
2021/03/15 09:01:02;;;;;;;19.57;18.27;;;8.10;99.90;;;;;;4998513;28;20081;-70
2021/03/15 09:03:48;;;;;;;19.30;17.88;;;8.20;99.90;;;;;;5005160;28;20058;-71
2021/03/15 09:06:38;;;;;;;24.85;23.60;;;8.10;99.90;;;;;;4999464;28;20054;-70
2021/03/15 09:09:34;;;;;;;25.85;24.15;;;8.10;99.90;;;;;;4995483;28;20078;-70
2021/03/15 09:12:02;;;;;;;23.45;22.15;;;7.90;99.90;;;;;;4994345;28;20038;-70
2021/03/15 09:14:38;;;;;;;20.42;19.25;;;7.80;99.90;;;;;;4996379;28;20073;-69
2021/03/15 09:17:31;;;;;;;16.55;15.55;;;7.70;99.90;;;;;;4998982;28;20058;-71
2021/03/15 09:19:58;;;;;;;15.93;14.93;;;7.60;99.90;;;;;;4992968;28;20046;-70
2021/03/15 09:22:31;;;;;;;17.17;16.08;;;7.60;99.90;;;;;;5000091;28;20054;-70
2021/03/15 09:24:59;;;;;;;16.90;15.88;;;7.80;99.90;;;;;;5002851;28;20461;-70
2021/03/15 09:27:50;;;;;;;16.67;15.40;;;8.00;99.90;;;;;;5001453;28;20045;-70
2021/03/15 09:30:19;;;;;;;15.18;14.35;;;8.20;99.90;;;;;;4998412;28;20050;-70
2021/03/15 09:32:48;;;;;;;14.55;13.23;;;8.30;99.90;;;;;;4999913;28;20050;-70
2021/03/15 09:35:14;;;;;;;16.30;15.05;;;8.30;99.90;;;;;;5000499;28;20579;-70
2021/03/15 09:37:50;;;;;;;15.90;14.40;;;8.40;99.90;;;;;;4997091;28;20050;-70
2021/03/15 09:40:17;;;;;;;15.60;14.50;;;8.40;99.90;;;;;;4998879;28;20054;-70
2021/03/15 09:42:49;;;;;;;16.27;15.10;;;8.40;99.90;;;;;;5005366;28;20046;-70
2021/03/15 09:45:32;;;;;;;13.93;12.73;;;8.40;99.90;;;;;;4998335;28;20435;-69
2021/03/15 09:48:00;;;;;;;15.82;14.65;;;8.30;99.90;;;;;;5003947;28;20047;-69
2021/03/15 09:50:30;;;;;;;15.20;14.00;;;8.30;99.90;;;;;;5003756;28;20060;-70
2021/03/15 09:53:14;;;;;;;15.75;14.85;;;8.20;99.90;;;;;;5000855;28;20474;-69
2021/03/15 09:55:40;;;;;;;14.48;13.52;;;8.20;99.90;;;;;;4996713;28;20088;-70
2021/03/15 09:58:19;;;;;;;14.30;13.40;;;8.20;99.90;;;;;;5000482;28;20050;-70
2021/03/15 10:00:46;;;;;;;9.52;8.80;;;8.20;99.90;;;;;;5002264;28;20968;-70
2021/03/15 10:03:23;;;;;;;15.90;14.63;;;8.20;99.90;;;;;;5000500;28;20046;-70
2021/03/15 10:05:55;;;;;;;29.80;27.50;;;8.20;99.90;;;;;;5005717;28;20056;-70
2021/03/15 10:08:23;;;;;;;12.80;11.90;;;8.20;99.90;;;;;;5005092;28;20046;-70
2021/03/15 10:10:49;;;;;;;13.65;12.85;;;8.20;99.90;;;;;;4998738;28;20058;-70
2021/03/15 10:13:16;;;;;;;16.05;15.10;;;8.10;99.90;;;;;;5005959;28;20313;-70
2021/03/15 10:15:46;;;;;;;15.52;14.82;;;8.10;99.90;;;;;;4997135;28;20065;-70
2021/03/15 10:18:20;;;;;;;14.57;13.77;;;8.10;99.90;;;;;;5004019;28;20050;-71
2021/03/15 10:20:48;;;;;;;13.45;12.75;;;8.20;99.90;;;;;;5003614;28;20045;-71
2021/03/15 10:23:17;;;;;;;15.07;13.93;;;8.20;99.90;;;;;;5002982;28;20060;-70
2021/03/15 10:25:54;;;;;;;15.55;14.65;;;8.20;99.90;;;;;;5005902;28;20115;-71
2021/03/15 10:28:22;;;;;;;13.60;12.98;;;8.10;99.90;;;;;;5002994;28;20042;-71
2021/03/15 10:30:50;;;;;;;13.20;12.27;;;8.10;99.90;;;;;;5002637;28;20096;-70
2021/03/15 10:33:20;;;;;;;13.32;12.63;;;8.10;99.90;;;;;;5096921;27;20446;-71
2021/03/15 10:35:49;;;;;;;14.40;13.35;;;8.10;99.90;;;;;;5006896;28;21157;-70
2021/03/15 10:38:17;;;;;;;15.18;14.38;;;8.10;99.90;;;;;;5003860;28;20050;-70
2021/03/15 10:40:45;;;;;;;15.73;14.68;;;8.10;99.90;;;;;;5004917;28;20053;-70
2021/03/15 10:43:25;;;;;;;17.88;16.88;;;8.20;99.90;;;;;;5004497;28;20120;-70
2021/03/15 10:45:52;;;;;;;15.50;14.57;;;8.20;99.90;;;;;;5010257;28;23067;-70
2021/03/15 10:48:24;;;;;;;16.40;15.55;;;8.30;99.90;;;;;;5000919;28;20456;-70
2021/03/15 10:50:55;;;;;;;16.05;15.15;;;8.30;99.90;;;;;;5002500;28;20048;-71
2021/03/15 10:53:26;;;;;;;15.57;14.68;;;8.40;99.90;;;;;;4999556;28;20061;-71
2021/03/15 10:55:52;;;;;;;14.68;13.73;;;8.40;99.90;;;;;;5000652;28;20038;-71
2021/03/15 10:58:39;;;;;;;13.85;12.98;;;8.30;99.90;;;;;;5006276;28;20511;-71
2021/03/15 11:01:06;;;;;;;14.23;13.48;;;8.30;99.90;;;;;;5003818;28;20054;-70
2021/03/15 11:03:33;;;;;;;15.93;15.10;;;8.30;99.90;;;;;;5002363;28;20060;-71
2021/03/15 11:06:14;;;;;;;23.00;21.63;;;8.40;99.90;;;;;;5000116;28;20107;-70
2021/03/15 11:08:41;;;;;;;15.73;14.60;;;8.40;99.90;;;;;;5000013;28;20054;-71
2021/03/15 11:11:18;;;;;;;18.30;17.13;;;8.50;99.90;;;;;;5000246;28;20125;-71
2021/03/15 11:13:49;;;;;;;24.88;23.38;;;8.50;99.90;;;;;;4995805;28;20955;-70
2021/03/15 11:16:24;;;;;;;21.30;20.30;;;8.60;99.90;;;;;;4997354;28;20046;-70
2021/03/15 11:19:12;;;;;;;22.02;20.67;;;8.60;99.90;;;;;;4995936;28;20053;-71
2021/03/15 11:21:40;;;;;;;19.73;18.63;;;8.60;99.90;;;;;;5000148;28;20450;-70
2021/03/15 11:24:09;;;;;;;20.45;19.45;;;8.70;99.90;;;;;;5002377;28;20092;-70
2021/03/15 11:26:45;;;;;;;22.38;21.15;;;8.70;99.90;;;;;;5000633;28;21227;-70
2021/03/15 11:29:12;;;;;;;22.92;21.52;;;8.70;99.90;;;;;;4995958;28;20050;-70
2021/03/15 11:31:48;;;;;;;24.70;23.40;;;8.70;99.90;;;;;;4997533;28;20136;-71
2021/03/15 11:34:20;;;;;;;18.35;17.42;;;8.70;99.90;;;;;;5004068;28;20112;-70
2021/03/15 11:36:48;;;;;;;21.38;20.17;;;8.90;99.90;;;;;;4994919;28;20064;-71
2021/03/15 11:39:15;;;;;;;15.15;14.25;;;9.00;99.90;;;;;;5001554;28;20041;-71
2021/03/15 11:41:43;;;;;;;23.27;22.05;;;9.10;99.90;;;;;;4997600;28;20471;-71
2021/03/15 11:44:10;;;;;;;16.77;15.25;;;9.10;99.90;;;;;;4995322;28;20050;-71
2021/03/15 11:46:38;;;;;;;25.15;23.33;;;9.10;99.90;;;;;;4993688;28;20092;-71
2021/03/15 11:49:04;;;;;;;24.23;22.87;;;9.10;99.90;;;;;;5000590;28;20103;-71
2021/03/15 11:51:31;;;;;;;26.48;24.73;;;9.00;99.90;;;;;;4993959;28;20046;-71
2021/03/15 11:53:57;;;;;;;22.35;21.15;;;8.90;99.90;;;;;;4997171;28;20058;-71
2021/03/15 11:56:24;;;;;;;20.08;18.77;;;8.80;99.90;;;;;;4991690;28;20070;-71
2021/03/15 11:58:50;;;;;;;18.33;17.13;;;8.60;99.90;;;;;;4995127;28;20116;-71
2021/03/15 12:01:17;;;;;;;19.00;17.92;;;8.50;99.90;;;;;;5002779;28;20149;-71
2021/03/15 12:03:44;;;;;;;21.63;20.45;;;8.40;99.90;;;;;;5091873;27;20068;-71
2021/03/15 12:06:12;;;;;;;23.52;22.23;;;8.30;99.90;;;;;;5007428;28;20060;-70
2021/03/15 12:08:39;;;;;;;28.33;26.73;;;8.10;99.90;;;;;;5006326;28;20068;-70
2021/03/15 12:11:05;;;;;;;16.77;15.68;;;8.00;99.90;;;;;;5003996;28;20041;-70
2021/03/15 12:13:32;;;;;;;24.67;23.13;;;7.90;99.90;;;;;;4999468;28;20046;-71
2021/03/15 12:15:58;;;;;;;12.60;11.65;;;7.90;99.90;;;;;;5000930;28;20123;-71
2021/03/15 12:18:25;;;;;;;21.35;20.00;;;7.80;99.90;;;;;;5007395;28;20044;-71
2021/03/15 12:20:51;;;;;;;13.02;12.13;;;7.80;99.90;;;;;;5008876;28;20606;-71
2021/03/15 12:23:17;;;;;;;10.15;9.35;;;7.90;99.90;;;;;;5022395;28;20402;-71
2021/03/15 12:25:44;;;;;;;12.38;11.32;;;7.90;99.90;;;;;;5007625;28;20358;-71
2021/03/15 12:28:13;;;;;;;9.98;9.18;;;7.90;99.90;;;;;;5008402;28;20046;-71
2021/03/15 12:30:39;;;;;;;9.40;8.70;;;7.90;99.90;;;;;;5007321;28;20054;-71
2021/03/15 12:33:07;;;;;;;8.80;8.10;;;7.90;99.90;;;;;;5005897;28;20071;-70
2021/03/15 12:35:33;;;;;;;8.63;7.72;;;7.90;99.90;;;;;;5017398;28;20053;-70
2021/03/15 12:38:00;;;;;;;8.07;7.30;;;7.90;99.90;;;;;;5007734;28;20126;-71
2021/03/15 12:40:26;;;;;;;8.57;7.75;;;7.90;99.90;;;;;;5006838;28;20428;-71
2021/03/15 12:42:52;;;;;;;8.93;8.07;;;8.00;99.90;;;;;;5021275;28;20042;-70
2021/03/15 12:45:18;;;;;;;8.55;7.75;;;8.30;99.90;;;;;;5009508;28;20081;-71
2021/03/15 12:47:50;;;;;;;9.23;7.75;;;8.60;99.90;;;;;;5011803;28;20114;-71
2021/03/15 12:50:17;;;;;;;7.45;6.85;;;8.80;99.90;;;;;;5037571;28;20047;-71
2021/03/15 12:52:47;;;;;;;8.30;7.47;;;9.00;99.90;;;;;;5005075;28;20046;-71
2021/03/15 12:55:14;;;;;;;6.95;6.35;;;9.20;99.90;;;;;;5005534;28;20049;-71
2021/03/15 12:57:41;;;;;;;8.38;6.60;;;9.10;99.90;;;;;;5008579;28;20046;-71
2021/03/15 13:00:08;;;;;;;10.23;6.85;;;8.90;99.90;;;;;;5009865;28;20048;-71
2021/03/15 13:02:35;;;;;;;6.40;5.97;;;8.60;99.90;;;;;;5027620;28;20043;-71
2021/03/15 13:05:04;;;;;;;6.35;5.80;;;8.40;99.90;;;;;;5001656;28;20050;-71
2021/03/15 13:07:30;;;;;;;6.33;5.90;;;8.30;99.90;;;;;;5011317;28;20508;-71